Time;durP1;ratioP1;P1;durP2;ratioP2;P2;SDS_P1;SDS_P2;PMS_P1;PMS_P2;Temp;Humidity;BMP_temperature;BMP_pressure;BME280_temperature;BME280_humidity;BME280_pressure;Samples;Min_cycle;Max_cycle;Signal;HPM_P1;HPM_P2
2023/10/23 00:02:25;;;;;;;1.90;1.73;;;10.90;99.90;;;;;;5050921;28;20021;-56
2023/10/23 00:04:50;;;;;;;3.00;2.25;;;10.90;99.90;;;;;;5050832;28;20390;-57
2023/10/23 00:07:16;;;;;;;2.78;2.20;;;10.80;99.90;;;;;;5050929;28;20017;-57
2023/10/23 00:09:42;;;;;;;2.50;2.13;;;10.80;99.90;;;;;;5050728;28;20033;-57
2023/10/23 00:12:08;;;;;;;4.60;1.77;;;10.80;99.90;;;;;;5049617;28;20120;-57
2023/10/23 00:14:34;;;;;;;2.00;1.63;;;10.70;99.90;;;;;;5049138;28;20029;-57
2023/10/23 00:17:00;;;;;;;3.13;2.45;;;10.70;99.90;;;;;;5050563;28;20086;-58
2023/10/23 00:19:26;;;;;;;3.10;2.50;;;10.70;99.90;;;;;;5050591;28;20117;-57
2023/10/23 00:21:52;;;;;;;3.78;2.70;;;10.70;99.90;;;;;;5050594;28;20405;-58
2023/10/23 00:24:18;;;;;;;6.70;2.83;;;10.60;99.90;;;;;;5050616;28;20021;-57
2023/10/23 00:26:43;;;;;;;4.90;3.13;;;10.60;99.90;;;;;;5050600;28;20366;-57
2023/10/23 00:29:09;;;;;;;3.42;2.47;;;10.60;99.90;;;;;;5049317;28;20037;-57
2023/10/23 00:31:34;;;;;;;2.60;1.92;;;10.60;99.90;;;;;;5050764;28;20029;-58
2023/10/23 00:34:00;;;;;;;2.10;1.90;;;10.50;99.90;;;;;;5050569;28;20464;-57
2023/10/23 00:36:25;;;;;;;2.63;2.40;;;10.40;99.90;;;;;;5049978;28;20367;-57
2023/10/23 00:38:51;;;;;;;3.60;2.00;;;10.30;99.90;;;;;;5050749;28;20033;-56
2023/10/23 00:41:16;;;;;;;2.30;2.10;;;10.20;99.90;;;;;;5050246;28;20029;-57
2023/10/23 00:43:42;;;;;;;2.60;2.38;;;10.30;99.90;;;;;;5050164;28;20552;-56
2023/10/23 00:46:18;;;;;;;2.13;1.92;;;10.30;99.90;;;;;;5049935;28;20036;-57
2023/10/23 00:48:45;;;;;;;1.88;1.70;;;10.20;99.90;;;;;;5050376;28;20048;-57
2023/10/23 00:51:12;;;;;;;2.15;1.75;;;10.20;99.90;;;;;;5046539;28;20117;-58
2023/10/23 00:53:40;;;;;;;7.05;2.80;;;10.10;99.90;;;;;;5035619;28;20052;-58
2023/10/23 00:56:07;;;;;;;3.33;2.60;;;10.10;99.90;;;;;;5037822;28;20082;-59
2023/10/23 00:58:36;;;;;;;2.50;2.30;;;10.10;99.90;;;;;;5035346;28;20036;-59
2023/10/23 01:01:03;;;;;;;3.40;2.47;;;10.00;99.90;;;;;;5037620;28;20029;-58
2023/10/23 01:03:29;;;;;;;3.80;2.20;;;10.00;99.90;;;;;;5035878;28;20024;-58
2023/10/23 01:05:55;;;;;;;2.97;2.08;;;9.90;99.90;;;;;;5036558;28;20101;-59
2023/10/23 01:08:21;;;;;;;4.45;2.28;;;9.90;99.90;;;;;;5039617;28;20457;-59
2023/10/23 01:10:46;;;;;;;5.43;3.05;;;9.90;99.90;;;;;;5048447;28;20033;-59
2023/10/23 01:13:12;;;;;;;3.92;2.67;;;9.90;99.90;;;;;;5048257;28;20025;-59
2023/10/23 01:15:38;;;;;;;3.67;2.92;;;9.90;99.90;;;;;;5040025;28;20036;-58
2023/10/23 01:18:04;;;;;;;8.55;3.65;;;10.00;99.90;;;;;;5049258;28;20060;-58
2023/10/23 01:20:30;;;;;;;7.43;4.00;;;9.90;99.90;;;;;;5049317;28;20021;-58
2023/10/23 01:23:01;;;;;;;3.90;3.40;;;9.90;99.90;;;;;;5049841;28;20021;-58
2023/10/23 01:25:27;;;;;;;;;;;9.90;99.90;;;;;;5049782;28;20445;-58
2023/10/23 01:27:53;;;;;;;4.40;3.17;;;9.90;99.90;;;;;;5049379;28;19957;-58
2023/10/23 01:30:18;;;;;;;4.22;3.10;;;9.90;99.90;;;;;;5049625;28;20093;-58
2023/10/23 01:32:44;;;;;;;5.55;3.50;;;9.90;99.90;;;;;;5049278;28;20028;-58
2023/10/23 01:35:10;;;;;;;6.57;3.60;;;9.90;99.90;;;;;;5049166;28;20037;-57
2023/10/23 01:37:37;;;;;;;6.85;4.50;;;9.80;99.90;;;;;;5047850;28;20029;-57
2023/10/23 01:40:04;;;;;;;5.70;3.85;;;9.90;99.90;;;;;;5048916;28;20068;-57
2023/10/23 01:42:30;;;;;;;5.18;4.35;;;9.80;99.90;;;;;;5049402;28;20090;-57
2023/10/23 01:44:56;;;;;;;9.88;4.45;;;9.90;99.90;;;;;;5048911;28;20470;-58
2023/10/23 01:47:26;;;;;;;3.60;3.20;;;9.90;99.90;;;;;;5048879;28;20036;-58
2023/10/23 01:49:52;;;;;;;4.20;3.17;;;9.80;99.90;;;;;;5049303;28;20096;-58
2023/10/23 01:52:18;;;;;;;6.13;4.00;;;9.80;99.90;;;;;;5049385;28;20492;-57
2023/10/23 01:54:43;;;;;;;4.25;3.30;;;9.70;99.90;;;;;;5048997;28;20029;-57
2023/10/23 01:57:12;;;;;;;5.28;4.25;;;9.80;99.90;;;;;;5048922;28;20108;-57
2023/10/23 01:59:38;;;;;;;8.20;4.22;;;9.80;99.90;;;;;;5049132;28;20036;-58
2023/10/23 02:02:04;;;;;;;7.75;4.95;;;9.90;99.90;;;;;;5049150;28;20474;-57
2023/10/23 02:04:31;;;;;;;6.07;4.50;;;9.80;99.90;;;;;;5049176;28;20032;-58
2023/10/23 02:06:57;;;;;;;8.32;4.40;;;9.90;99.90;;;;;;5048820;28;20025;-58
2023/10/23 02:09:22;;;;;;;6.65;4.28;;;9.90;99.90;;;;;;5049070;28;20024;-58
2023/10/23 02:11:48;;;;;;;5.93;4.50;;;9.90;99.90;;;;;;5048965;28;20056;-58
2023/10/23 02:14:14;;;;;;;6.63;4.68;;;9.90;99.90;;;;;;5048880;28;20025;-58
2023/10/23 02:16:39;;;;;;;7.07;5.10;;;10.00;99.90;;;;;;5048844;28;20024;-58
2023/10/23 02:19:05;;;;;;;7.10;4.90;;;10.00;99.90;;;;;;5053220;28;20393;-56
2023/10/23 02:21:30;;;;;;;6.50;4.40;;;10.00;99.90;;;;;;5052999;28;20028;-55
2023/10/23 02:23:56;;;;;;;8.85;4.43;;;10.00;99.90;;;;;;5052904;28;20483;-55
2023/10/23 02:26:22;;;;;;;6.85;4.80;;;10.00;99.90;;;;;;5052790;28;20070;-55
2023/10/23 02:28:47;;;;;;;6.90;4.22;;;10.00;99.90;;;;;;5053036;28;20028;-58
2023/10/23 02:31:14;;;;;;;6.93;5.63;;;10.00;99.90;;;;;;5053065;28;20414;-58
2023/10/23 02:33:39;;;;;;;7.57;5.03;;;10.00;99.90;;;;;;5051418;28;20032;-57
2023/10/23 02:36:05;;;;;;;6.95;4.25;;;10.10;99.90;;;;;;5052664;28;20025;-58
2023/10/23 02:38:31;;;;;;;6.40;4.63;;;10.10;99.90;;;;;;5048369;28;20104;-58
2023/10/23 02:40:56;;;;;;;5.53;4.32;;;10.10;99.90;;;;;;5052185;28;20036;-57
2023/10/23 02:43:22;;;;;;;8.50;4.80;;;10.10;99.90;;;;;;5052735;28;20021;-57
2023/10/23 02:45:48;;;;;;;8.32;5.07;;;10.10;99.90;;;;;;5052722;28;20017;-57
2023/10/23 02:48:16;;;;;;;8.25;4.53;;;10.20;99.90;;;;;;5050692;28;20028;-57
2023/10/23 02:50:42;;;;;;;7.05;4.75;;;10.20;99.90;;;;;;5050951;28;20040;-57
2023/10/23 02:53:08;;;;;;;6.97;4.50;;;10.30;99.90;;;;;;5051155;28;20033;-57
2023/10/23 02:55:33;;;;;;;5.65;4.45;;;10.30;99.90;;;;;;5052061;28;20053;-57
2023/10/23 02:58:00;;;;;;;5.60;4.47;;;10.40;99.90;;;;;;5052135;28;20040;-57
2023/10/23 03:00:26;;;;;;;7.05;4.60;;;10.40;99.90;;;;;;5051954;28;20039;-57
2023/10/23 03:02:51;;;;;;;7.47;4.75;;;10.40;99.90;;;;;;5051897;28;20029;-57
2023/10/23 03:05:17;;;;;;;7.13;4.35;;;10.50;99.90;;;;;;5052223;28;20025;-57
2023/10/23 03:07:43;;;;;;;9.13;4.70;;;10.50;99.90;;;;;;5052009;28;20488;-57
2023/10/23 03:10:09;;;;;;;9.43;4.43;;;10.60;99.90;;;;;;5052153;28;20621;-57
2023/10/23 03:12:38;;;;;;;7.28;4.45;;;10.60;99.90;;;;;;5051946;28;20029;-57
2023/10/23 03:15:04;;;;;;;4.22;3.83;;;10.60;99.90;;;;;;5051864;28;20398;-57
2023/10/23 03:17:30;;;;;;;9.20;4.72;;;10.60;99.90;;;;;;5051715;28;20025;-57
2023/10/23 03:19:56;;;;;;;5.65;4.13;;;10.70;99.90;;;;;;5051674;28;20490;-58
2023/10/23 03:22:21;;;;;;;5.57;3.80;;;10.70;99.90;;;;;;5051505;28;20178;-57
2023/10/23 03:24:47;;;;;;;6.60;3.80;;;10.70;99.90;;;;;;5050334;28;20028;-57
2023/10/23 03:27:12;;;;;;;6.93;4.10;;;10.70;99.90;;;;;;5050141;28;20021;-58
2023/10/23 03:29:40;;;;;;;7.30;4.47;;;10.70;99.90;;;;;;5051023;28;20040;-58
2023/10/23 03:32:06;;;;;;;6.00;4.32;;;10.80;99.90;;;;;;5045322;28;20026;-58
2023/10/23 03:34:31;;;;;;;4.45;3.58;;;10.80;99.90;;;;;;5040824;28;20407;-58
2023/10/23 03:36:57;;;;;;;8.13;4.57;;;10.80;99.90;;;;;;5040095;28;20111;-58
2023/10/23 03:39:22;;;;;;;5.82;4.38;;;10.80;99.90;;;;;;5041469;28;20037;-58
2023/10/23 03:41:48;;;;;;;5.75;3.85;;;10.70;99.90;;;;;;5040969;28;20509;-58
2023/10/23 03:44:13;;;;;;;5.35;3.50;;;10.80;99.90;;;;;;5046867;28;20036;-58
2023/10/23 03:46:39;;;;;;;7.25;5.18;;;10.80;99.90;;;;;;5050960;28;20044;-58
2023/10/23 03:49:05;;;;;;;3.97;3.20;;;10.70;99.90;;;;;;5049876;28;20017;-58
2023/10/23 03:51:30;;;;;;;5.00;3.85;;;10.80;99.90;;;;;;5051179;28;20079;-58
2023/10/23 03:53:55;;;;;;;7.80;3.38;;;10.80;99.90;;;;;;5051086;28;20497;-58
2023/10/23 03:56:21;;;;;;;5.95;4.18;;;10.80;99.90;;;;;;5051021;28;20029;-58
2023/10/23 03:58:47;;;;;;;6.55;4.15;;;10.80;99.90;;;;;;5042955;28;20025;-58
2023/10/23 04:01:12;;;;;;;7.13;4.68;;;10.80;99.90;;;;;;5051158;28;20362;-58
2023/10/23 04:03:38;;;;;;;7.43;3.50;;;10.80;99.90;;;;;;5049544;28;20063;-58
2023/10/23 04:06:04;;;;;;;7.35;4.25;;;10.80;99.90;;;;;;5050687;28;20025;-58
2023/10/23 04:08:30;;;;;;;6.38;4.28;;;10.90;99.90;;;;;;5050964;28;20025;-58
2023/10/23 04:10:56;;;;;;;5.20;3.47;;;10.80;99.90;;;;;;5050904;28;20490;-58
2023/10/23 04:13:22;;;;;;;6.72;3.75;;;10.90;99.90;;;;;;5049545;28;20029;-58
2023/10/23 04:15:56;;;;;;;6.68;3.92;;;10.90;99.90;;;;;;5049170;28;20036;-58
2023/10/23 04:18:22;;;;;;;4.90;3.78;;;10.90;99.90;;;;;;5050758;28;20082;-58
2023/10/23 04:20:48;;;;;;;6.43;3.80;;;10.90;99.90;;;;;;5047778;28;20107;-58
2023/10/23 04:23:13;;;;;;;7.13;4.13;;;10.90;99.90;;;;;;5046002;28;20054;-58
2023/10/23 04:25:39;;;;;;;5.90;3.90;;;10.90;99.90;;;;;;5050498;28;20447;-58
2023/10/23 04:28:04;;;;;;;4.65;3.88;;;10.90;99.90;;;;;;5050574;28;20502;-58
2023/10/23 04:30:30;;;;;;;6.05;3.70;;;10.90;99.90;;;;;;5049053;28;20074;-58
2023/10/23 04:32:56;;;;;;;6.22;3.88;;;10.90;99.90;;;;;;5050167;28;20124;-58
2023/10/23 04:35:21;;;;;;;4.57;3.35;;;11.00;99.90;;;;;;5050276;28;20156;-57
2023/10/23 04:37:47;;;;;;;5.25;3.75;;;11.00;99.90;;;;;;5050161;28;20412;-58
2023/10/23 04:40:13;;;;;;;8.82;3.92;;;11.00;99.90;;;;;;5048311;28;20037;-58
2023/10/23 04:42:38;;;;;;;5.25;3.63;;;11.00;99.90;;;;;;5049766;28;20025;-58
2023/10/23 04:45:04;;;;;;;4.18;3.58;;;11.00;99.90;;;;;;5049968;28;20036;-58
2023/10/23 04:47:30;;;;;;;7.15;3.92;;;10.90;99.90;;;;;;5044716;28;20087;-58
2023/10/23 04:49:55;;;;;;;5.45;3.72;;;10.90;99.90;;;;;;5041704;28;20033;-58
2023/10/23 04:52:21;;;;;;;5.35;3.70;;;10.90;99.90;;;;;;5048685;28;20478;-58
2023/10/23 04:54:46;;;;;;;4.82;3.60;;;10.90;99.90;;;;;;5049846;28;20039;-58
2023/10/23 04:57:12;;;;;;;6.78;3.60;;;10.80;99.90;;;;;;5049829;28;20031;-58
2023/10/23 04:59:37;;;;;;;9.10;4.55;;;10.80;99.90;;;;;;5049981;28;20682;-58
2023/10/23 05:02:03;;;;;;;3.83;3.45;;;10.80;99.90;;;;;;5049599;28;20087;-57
2023/10/23 05:04:30;;;;;;;5.75;4.50;;;10.80;99.90;;;;;;5049720;28;20028;-58
2023/10/23 05:06:57;;;;;;;5.30;4.05;;;10.70;99.90;;;;;;5048404;28;20116;-58
2023/10/23 05:09:22;;;;;;;8.07;4.47;;;10.70;99.90;;;;;;5049875;28;20104;-58
2023/10/23 05:11:48;;;;;;;5.53;4.15;;;10.70;99.90;;;;;;5046072;28;20550;-58
2023/10/23 05:14:13;;;;;;;7.68;4.00;;;10.70;99.90;;;;;;5045435;28;20491;-58
2023/10/23 05:16:39;;;;;;;4.53;4.00;;;10.70;99.90;;;;;;5049234;28;20032;-58
2023/10/23 05:19:04;;;;;;;4.03;3.28;;;10.60;99.90;;;;;;5049634;28;20433;-58
2023/10/23 05:21:30;;;;;;;7.05;4.45;;;10.70;99.90;;;;;;5049340;28;20029;-58
2023/10/23 05:23:56;;;;;;;7.80;5.10;;;10.70;99.90;;;;;;5047991;28;20047;-58
2023/10/23 05:26:21;;;;;;;4.95;4.45;;;10.70;99.90;;;;;;5049267;28;20155;-58
2023/10/23 05:28:49;;;;;;;5.80;4.15;;;10.70;99.90;;;;;;5049694;28;20025;-58
2023/10/23 05:31:15;;;;;;;4.90;3.85;;;10.80;99.90;;;;;;5048073;28;20036;-58
2023/10/23 05:33:40;;;;;;;6.60;4.68;;;10.80;99.90;;;;;;5049212;28;20267;-58
2023/10/23 05:36:09;;;;;;;9.45;4.38;;;10.80;99.90;;;;;;5048896;28;20044;-58
2023/10/23 05:38:35;;;;;;;7.07;4.00;;;10.80;99.90;;;;;;5048103;28;20025;-58
2023/10/23 05:41:02;;;;;;;6.78;4.65;;;10.90;99.90;;;;;;5048617;28;20057;-58
2023/10/23 05:43:28;;;;;;;7.55;4.40;;;10.90;99.90;;;;;;5049022;28;20283;-57
2023/10/23 05:45:55;;;;;;;4.03;3.58;;;10.90;99.90;;;;;;5048853;28;20411;-57
2023/10/23 05:48:20;;;;;;;6.63;4.53;;;10.90;99.90;;;;;;5049396;28;20055;-57
2023/10/23 05:50:55;;;;;;;6.07;4.53;;;10.90;99.90;;;;;;5049330;28;20033;-58
2023/10/23 05:53:20;;;;;;;5.60;4.53;;;11.00;99.90;;;;;;5048947;28;20040;-57
2023/10/23 05:55:46;;;;;;;6.75;4.47;;;11.00;99.90;;;;;;5046391;28;20373;-57
2023/10/23 05:58:11;;;;;;;8.98;5.75;;;11.00;99.90;;;;;;5038383;28;20084;-57
2023/10/23 06:00:37;;;;;;;6.07;5.07;;;11.00;99.90;;;;;;5042938;28;20021;-57
2023/10/23 06:03:02;;;;;;;7.07;4.60;;;11.00;99.90;;;;;;5039871;28;20030;-57
2023/10/23 06:05:28;;;;;;;9.65;4.85;;;11.00;99.90;;;;;;5048270;28;20390;-57
2023/10/23 06:07:53;;;;;;;5.60;4.03;;;11.00;99.90;;;;;;5048461;28;20087;-57
2023/10/23 06:10:19;;;;;;;7.00;4.75;;;11.00;99.90;;;;;;5048979;28;20033;-57
2023/10/23 06:12:44;;;;;;;7.75;4.43;;;11.00;99.90;;;;;;5047272;28;20024;-57
2023/10/23 06:15:10;;;;;;;8.10;5.38;;;11.00;99.90;;;;;;5048442;28;20528;-57
2023/10/23 06:17:35;;;;;;;6.93;4.78;;;11.10;99.90;;;;;;5048825;28;20041;-57
2023/10/23 06:20:02;;;;;;;7.55;4.65;;;11.10;99.90;;;;;;5048856;28;20082;-57
2023/10/23 06:22:28;;;;;;;5.63;4.60;;;11.10;99.90;;;;;;5049026;28;20483;-57
2023/10/23 06:24:53;;;;;;;4.93;4.28;;;11.10;99.90;;;;;;5048625;28;20067;-57
2023/10/23 06:27:19;;;;;;;6.88;4.85;;;11.10;99.90;;;;;;5048735;28;20025;-57
2023/10/23 06:29:44;;;;;;;8.57;5.00;;;11.10;99.90;;;;;;5047566;28;20025;-57
2023/10/23 06:32:11;;;;;;;9.45;5.32;;;11.20;99.90;;;;;;5048537;28;20033;-57
2023/10/23 06:34:37;;;;;;;9.32;4.78;;;11.20;99.90;;;;;;5048657;28;20029;-57
2023/10/23 06:37:03;;;;;;;6.03;4.30;;;11.20;99.90;;;;;;5046990;28;20036;-57
2023/10/23 06:39:29;;;;;;;8.40;4.63;;;11.20;99.90;;;;;;5048575;28;20657;-57
2023/10/23 06:41:54;;;;;;;5.03;3.70;;;11.20;99.90;;;;;;5048972;28;20489;-57
2023/10/23 06:44:19;;;;;;;4.55;3.92;;;11.20;99.90;;;;;;5047320;28;20017;-57
2023/10/23 06:46:45;;;;;;;7.00;4.25;;;11.20;99.90;;;;;;5048163;28;20413;-57
2023/10/23 06:49:10;;;;;;;5.43;3.85;;;11.30;99.90;;;;;;5048557;28;20033;-57
2023/10/23 06:51:36;;;;;;;7.97;3.90;;;11.30;99.90;;;;;;5048440;28;20090;-57
2023/10/23 06:54:03;;;;;;;5.32;3.88;;;11.50;99.90;;;;;;5048542;28;20021;-57
2023/10/23 06:56:29;;;;;;;5.00;3.97;;;11.50;99.90;;;;;;5047746;28;20281;-57
2023/10/23 06:58:54;;;;;;;4.03;3.22;;;11.60;99.90;;;;;;5048212;28;20029;-58
2023/10/23 07:01:20;;;;;;;4.97;3.30;;;11.70;99.90;;;;;;5046854;28;20756;-57
2023/10/23 07:03:45;;;;;;;6.18;3.65;;;11.80;99.90;;;;;;5048373;28;20055;-57
2023/10/23 07:06:11;;;;;;;7.95;3.42;;;11.80;99.90;;;;;;5050011;28;20025;-57
2023/10/23 07:08:39;;;;;;;6.20;3.45;;;11.90;99.90;;;;;;5051841;28;20025;-58
2023/10/23 07:11:12;;;;;;;5.22;3.30;;;11.90;99.90;;;;;;5052080;28;20017;-57
2023/10/23 07:13:37;;;;;;;5.40;3.38;;;12.00;99.90;;;;;;5051739;28;20021;-57
2023/10/23 07:16:03;;;;;;;4.05;3.25;;;12.00;99.90;;;;;;5051517;28;20029;-57
2023/10/23 07:18:29;;;;;;;6.80;3.83;;;12.20;99.90;;;;;;5051772;28;20029;-57
2023/10/23 07:20:56;;;;;;;4.95;3.63;;;12.20;99.90;;;;;;5051761;28;20025;-57
2023/10/23 07:23:22;;;;;;;8.43;3.40;;;12.30;99.90;;;;;;5051171;28;20075;-57
2023/10/23 07:25:48;;;;;;;4.53;3.00;;;12.30;99.90;;;;;;5051485;28;20120;-58
2023/10/23 07:28:13;;;;;;;6.05;3.38;;;12.30;99.90;;;;;;5051709;28;20021;-58
2023/10/23 07:30:39;;;;;;;5.78;3.75;;;12.40;99.90;;;;;;5051838;28;20025;-58
2023/10/23 07:33:04;;;;;;;7.47;4.00;;;12.40;99.90;;;;;;5051550;28;20085;-57
2023/10/23 07:35:30;;;;;;;4.30;3.22;;;12.50;99.90;;;;;;5049645;28;20025;-57
2023/10/23 07:37:56;;;;;;;5.75;3.58;;;12.60;99.90;;;;;;5039018;28;20334;-57
2023/10/23 07:40:21;;;;;;;4.28;3.05;;;12.60;99.90;;;;;;5038596;28;20028;-57
2023/10/23 07:42:47;;;;;;;3.92;3.47;;;12.60;99.90;;;;;;5038840;28;20032;-57
2023/10/23 07:45:12;;;;;;;4.25;3.50;;;12.60;99.90;;;;;;5048791;28;20025;-57
2023/10/23 07:47:38;;;;;;;5.45;3.72;;;12.60;99.90;;;;;;5050886;28;20039;-57
2023/10/23 07:50:04;;;;;;;5.93;3.67;;;12.60;99.90;;;;;;5051484;28;20063;-57
2023/10/23 07:52:30;;;;;;;5.10;4.05;;;12.60;99.90;;;;;;5050966;28;20500;-57
2023/10/23 07:54:56;;;;;;;6.93;4.40;;;12.60;99.90;;;;;;5049387;28;20108;-57
2023/10/23 07:57:21;;;;;;;5.05;3.50;;;12.60;99.90;;;;;;5051109;28;20044;-57
2023/10/23 07:59:48;;;;;;;5.38;3.72;;;12.80;99.90;;;;;;5045552;28;20375;-57
2023/10/23 08:02:13;;;;;;;6.90;4.18;;;12.90;99.90;;;;;;5035223;28;20028;-57
2023/10/23 08:04:40;;;;;;;4.50;3.50;;;12.90;99.90;;;;;;5050047;28;20021;-57
2023/10/23 08:07:05;;;;;;;6.72;4.55;;;13.00;99.90;;;;;;5048987;28;20025;-57
2023/10/23 08:09:31;;;;;;;6.60;4.97;;;13.10;99.90;;;;;;5045536;28;20021;-57
2023/10/23 08:11:56;;;;;;;5.93;3.80;;;13.20;99.90;;;;;;5039444;28;20352;-57
2023/10/23 08:14:22;;;;;;;4.43;3.40;;;13.40;99.90;;;;;;5041239;28;20032;-57
2023/10/23 08:16:51;;;;;;;5.60;3.33;;;13.60;99.90;;;;;;5039680;28;20378;-57
2023/10/23 08:19:18;;;;;;;6.03;3.08;;;13.70;99.90;;;;;;5041668;28;20028;-57
2023/10/23 08:21:43;;;;;;;6.82;3.78;;;13.90;99.90;;;;;;5042861;28;20021;-57
2023/10/23 08:24:09;;;;;;;5.03;3.13;;;14.00;99.90;;;;;;5040959;28;20036;-57
2023/10/23 08:26:35;;;;;;;4.50;3.95;;;14.00;99.90;;;;;;5041505;28;20013;-57
2023/10/23 08:29:00;;;;;;;5.57;3.58;;;14.10;99.90;;;;;;5038658;28;20270;-57
2023/10/23 08:31:26;;;;;;;8.55;4.13;;;14.10;99.90;;;;;;5041973;28;20367;-57
2023/10/23 08:33:51;;;;;;;5.13;3.97;;;14.10;99.90;;;;;;5050614;28;20510;-57
2023/10/23 08:36:17;;;;;;;6.45;3.83;;;14.10;99.90;;;;;;5050119;28;20025;-57
2023/10/23 08:38:42;;;;;;;3.58;3.08;;;14.20;99.90;;;;;;5049901;28;20037;-57
2023/10/23 08:41:10;;;;;;;7.95;3.83;;;14.30;99.90;;;;;;5050128;28;20502;-57
2023/10/23 08:43:36;;;;;;;12.02;4.60;;;14.40;99.90;;;;;;5050333;28;20029;-57
2023/10/23 08:46:01;;;;;;;6.85;4.25;;;14.40;99.90;;;;;;5050065;28;20028;-57
2023/10/23 08:48:28;;;;;;;7.55;5.45;;;14.40;99.90;;;;;;5050029;28;20498;-57
2023/10/23 08:50:56;;;;;;;10.80;7.75;;;14.50;99.90;;;;;;5048691;28;20029;-57
2023/10/23 08:53:27;;;;;;;14.65;10.93;;;14.50;99.90;;;;;;5049854;28;20032;-57
2023/10/23 08:55:53;;;;;;;12.30;9.15;;;14.70;99.90;;;;;;5049903;28;20052;-57
2023/10/23 08:58:21;;;;;;;15.65;11.00;;;14.80;99.90;;;;;;5048743;28;20079;-57
2023/10/23 09:00:47;;;;;;;12.80;10.10;;;14.90;99.90;;;;;;5049685;28;20037;-56
2023/10/23 09:03:13;;;;;;;11.60;8.75;;;15.00;99.90;;;;;;5049719;28;20498;-57
2023/10/23 09:05:39;;;;;;;12.15;8.80;;;14.90;99.90;;;;;;5049520;28;20021;-57
2023/10/23 09:08:06;;;;;;;14.13;10.85;;;14.90;99.90;;;;;;5049382;28;20024;-56
2023/10/23 09:10:31;;;;;;;12.85;11.02;;;14.80;99.90;;;;;;5049645;28;20021;-57
2023/10/23 09:12:57;;;;;;;11.75;9.57;;;15.30;99.90;;;;;;5048087;28;20024;-57
2023/10/23 09:15:23;;;;;;;12.88;9.35;;;16.40;99.90;;;;;;5049565;28;20021;-57
2023/10/23 09:17:52;;;;;;;13.00;9.02;;;16.90;99.90;;;;;;5049540;28;20151;-57
2023/10/23 09:20:18;;;;;;;15.52;8.27;;;17.20;99.90;;;;;;5047516;28;20028;-57
2023/10/23 09:22:50;;;;;;;8.57;7.43;;;17.50;99.90;;;;;;5047560;28;20043;-57
2023/10/23 09:25:17;;;;;;;10.10;7.78;;;18.80;99.90;;;;;;5049399;28;20032;-57
2023/10/23 09:27:43;;;;;;;10.50;6.97;;;20.50;99.90;;;;;;5048617;28;20036;-57
2023/10/23 09:30:09;;;;;;;9.52;6.95;;;21.50;99.90;;;;;;5049206;28;20334;-58
2023/10/23 09:32:35;;;;;;;12.00;7.78;;;22.10;98.80;;;;;;5049183;28;20021;-58
2023/10/23 09:35:02;;;;;;;8.48;7.55;;;21.40;97.20;;;;;;5037633;28;20029;-58
2023/10/23 09:37:27;;;;;;;11.45;8.48;;;20.80;98.30;;;;;;5048931;28;20485;-57
2023/10/23 09:39:53;;;;;;;8.25;6.45;;;19.90;99.20;;;;;;5049342;28;20114;-57
2023/10/23 09:42:18;;;;;;;7.50;6.80;;;19.70;99.90;;;;;;5049218;28;20123;-57
2023/10/23 09:44:45;;;;;;;9.38;7.65;;;20.70;99.80;;;;;;5049115;28;20670;-58
2023/10/23 09:47:12;;;;;;;8.77;5.20;;;21.90;97.60;;;;;;5047369;28;20464;-58
2023/10/23 09:49:40;;;;;;;6.05;4.78;;;23.50;95.40;;;;;;5048721;28;20048;-58
2023/10/23 09:52:07;;;;;;;7.63;5.05;;;24.70;92.80;;;;;;5048947;28;20497;-58
2023/10/23 09:54:38;;;;;;;8.57;6.32;;;25.10;91.30;;;;;;5048893;28;20036;-58
2023/10/23 09:57:06;;;;;;;6.82;6.03;;;24.90;89.30;;;;;;5047438;28;20064;-58
2023/10/23 09:59:42;;;;;;;8.23;6.80;;;23.70;90.80;;;;;;5048643;28;20028;-58
2023/10/23 10:02:09;;;;;;;8.30;6.35;;;23.00;91.40;;;;;;5049419;28;20051;-57
2023/10/23 10:05:07;;;;;;;7.20;5.75;;;23.60;91.70;;;;;;5047384;28;20096;-57
2023/10/23 10:07:58;;;;;;;7.75;5.95;;;24.80;91.30;;;;;;5048673;28;20525;-57
2023/10/23 10:10:26;;;;;;;5.85;5.28;;;25.70;89.40;;;;;;5048852;28;20035;-57
2023/10/23 10:12:52;;;;;;;5.22;4.50;;;25.80;88.10;;;;;;5048861;28;20032;-58
2023/10/23 10:15:18;;;;;;;6.22;5.63;;;25.10;86.60;;;;;;5048782;28;20049;-59
2023/10/23 10:17:45;;;;;;;7.00;6.15;;;24.00;89.90;;;;;;5047503;28;20091;-57
2023/10/23 10:20:11;;;;;;;7.20;6.50;;;23.30;89.90;;;;;;5047480;28;20166;-56
2023/10/23 10:22:39;;;;;;;9.07;6.95;;;22.10;91.70;;;;;;5048769;28;20025;-56
2023/10/23 10:25:07;;;;;;;6.68;5.90;;;21.50;93.00;;;;;;5048286;28;20560;-57
2023/10/23 10:27:33;;;;;;;8.75;6.25;;;21.80;93.10;;;;;;5048718;28;20025;-57
2023/10/23 10:30:04;;;;;;;7.03;6.13;;;23.10;92.20;;;;;;5047494;28;20025;-57
2023/10/23 10:32:34;;;;;;;7.53;5.80;;;23.90;90.50;;;;;;5048722;28;20025;-57
2023/10/23 10:35:06;;;;;;;7.90;5.55;;;24.30;87.70;;;;;;5047149;28;20017;-56
2023/10/23 10:37:32;;;;;;;8.40;6.20;;;25.10;86.80;;;;;;5048469;28;20017;-56
2023/10/23 10:39:58;;;;;;;9.15;5.88;;;23.80;88.00;;;;;;5050528;28;20040;-56
2023/10/23 10:42:29;;;;;;;7.30;6.03;;;23.10;88.50;;;;;;5051801;28;20104;-56
2023/10/23 10:44:54;;;;;;;8.65;7.13;;;22.30;90.20;;;;;;5052438;28;20490;-56
2023/10/23 10:47:21;;;;;;;9.40;6.65;;;21.40;91.50;;;;;;5052491;28;20021;-58
2023/10/23 10:49:47;;;;;;;8.23;7.43;;;20.50;93.40;;;;;;5045681;28;20100;-58
2023/10/23 10:52:30;;;;;;;9.55;7.10;;;20.20;93.90;;;;;;5045974;28;20029;-59
2023/10/23 10:54:56;;;;;;;14.80;8.10;;;19.60;94.50;;;;;;5052338;28;20024;-58
2023/10/23 10:57:21;;;;;;;7.15;6.45;;;19.50;96.10;;;;;;5053362;28;20029;-58
2023/10/23 10:59:47;;;;;;;10.45;7.28;;;19.40;95.60;;;;;;5051976;28;20029;-58
2023/10/23 11:02:12;;;;;;;9.63;7.22;;;19.10;96.40;;;;;;5051970;28;20025;-58
2023/10/23 11:04:38;;;;;;;8.55;6.80;;;18.60;97.50;;;;;;5050735;28;20017;-58
2023/10/23 11:07:06;;;;;;;8.65;6.88;;;18.30;98.60;;;;;;5051958;28;20390;-58
2023/10/23 11:09:31;;;;;;;9.05;7.35;;;18.10;98.90;;;;;;5052093;28;20513;-58
2023/10/23 11:11:59;;;;;;;10.10;6.60;;;18.10;99.90;;;;;;5051950;28;20033;-58
2023/10/23 11:14:25;;;;;;;11.20;7.63;;;19.40;99.20;;;;;;5051511;28;20028;-56
2023/10/23 11:16:51;;;;;;;11.35;6.80;;;19.70;98.00;;;;;;5052029;28;20379;-56
2023/10/23 11:19:16;;;;;;;14.65;6.22;;;19.70;97.40;;;;;;5051740;28;20029;-56
2023/10/23 11:21:43;;;;;;;6.95;5.53;;;20.00;96.40;;;;;;5051664;28;21100;-56
2023/10/23 11:24:08;;;;;;;5.93;5.00;;;20.20;95.60;;;;;;5051624;28;20017;-56
2023/10/23 11:26:34;;;;;;;5.72;4.10;;;20.00;96.10;;;;;;5051421;28;20025;-56
2023/10/23 11:28:59;;;;;;;7.88;4.65;;;20.10;94.90;;;;;;5050374;28;20017;-56
2023/10/23 11:31:25;;;;;;;7.75;4.50;;;19.60;95.60;;;;;;5051555;28;20090;-56
2023/10/23 11:33:52;;;;;;;8.93;4.82;;;19.30;95.90;;;;;;5046427;28;20025;-56
2023/10/23 11:36:18;;;;;;;6.60;4.40;;;19.10;96.10;;;;;;5047232;28;20034;-57
2023/10/23 11:38:44;;;;;;;6.75;4.22;;;19.20;96.10;;;;;;5051375;28;20366;-57
2023/10/23 11:41:10;;;;;;;5.32;3.53;;;19.60;96.10;;;;;;5048257;28;20036;-56
2023/10/23 11:43:38;;;;;;;4.38;3.60;;;19.80;96.60;;;;;;5051242;28;20100;-56
2023/10/23 11:46:04;;;;;;;5.00;3.40;;;20.10;96.70;;;;;;5050925;28;20025;-57
2023/10/23 11:48:30;;;;;;;6.22;3.88;;;20.90;96.40;;;;;;5051469;28;20461;-56
2023/10/23 11:50:56;;;;;;;5.50;3.20;;;21.80;93.90;;;;;;5050605;28;20116;-57
2023/10/23 11:53:22;;;;;;;4.03;2.97;;;22.80;93.20;;;;;;5051455;28;20170;-57
2023/10/23 11:55:49;;;;;;;3.88;3.10;;;24.00;91.50;;;;;;5044329;28;20025;-57
2023/10/23 11:58:25;;;;;;;4.55;3.75;;;24.90;89.80;;;;;;5041845;28;20025;-57
2023/10/23 12:00:50;;;;;;;4.05;2.80;;;25.90;84.00;;;;;;5039966;28;20108;-58
2023/10/23 12:03:16;;;;;;;3.47;2.80;;;26.30;82.70;;;;;;5039202;28;20100;-57
2023/10/23 12:05:41;;;;;;;4.15;2.90;;;25.80;80.20;;;;;;5047001;28;20029;-57
2023/10/23 12:08:07;;;;;;;4.53;2.80;;;24.70;81.10;;;;;;5050766;28;20025;-57
2023/10/23 12:10:37;;;;;;;3.80;3.08;;;23.70;84.60;;;;;;5050920;28;20025;-57
2023/10/23 12:13:03;;;;;;;4.22;3.28;;;22.40;88.80;;;;;;5050723;28;20054;-58
2023/10/23 12:15:29;;;;;;;4.10;3.15;;;21.40;90.40;;;;;;5050392;28;20029;-57
2023/10/23 12:18:02;;;;;;;5.53;3.90;;;21.20;91.80;;;;;;5050599;28;20044;-56
2023/10/23 12:20:29;;;;;;;5.07;3.35;;;21.40;92.30;;;;;;5049314;28;20520;-57
2023/10/23 12:22:55;;;;;;;5.63;3.92;;;21.20;91.40;;;;;;5050615;28;20429;-56
2023/10/23 12:25:20;;;;;;;3.92;3.13;;;21.00;91.60;;;;;;5050527;28;20278;-56
2023/10/23 12:27:46;;;;;;;5.63;3.40;;;20.90;91.80;;;;;;5050359;28;20106;-56
2023/10/23 12:30:12;;;;;;;5.75;3.63;;;20.50;92.00;;;;;;5050625;28;20025;-56
2023/10/23 12:32:39;;;;;;;5.55;3.80;;;20.20;93.30;;;;;;5049302;28;20033;-56
2023/10/23 12:35:05;;;;;;;5.47;3.70;;;19.90;93.00;;;;;;5050456;28;20378;-56
2023/10/23 12:37:31;;;;;;;4.05;3.65;;;19.60;94.30;;;;;;5050068;28;20025;-56
2023/10/23 12:40:00;;;;;;;4.93;4.20;;;19.40;94.70;;;;;;5050182;28;20172;-56
2023/10/23 12:42:26;;;;;;;4.55;3.90;;;19.30;96.40;;;;;;5050057;28;20021;-56
2023/10/23 12:44:52;;;;;;;5.82;4.50;;;19.40;95.80;;;;;;5050020;28;20434;-56